createdAt,value
2018-07-24T20:19:31.326Z,24.90
2018-07-24T20:24:34.637Z,25.10
2018-07-24T20:29:37.785Z,25.50
2018-07-24T20:34:40.962Z,25.90
2018-07-24T20:39:44.118Z,26.10
2018-07-24T20:44:47.370Z,26.10
2018-07-24T20:49:50.527Z,26.20
2018-07-24T20:54:53.695Z,26.20
2018-07-24T20:59:56.851Z,26.10
2018-07-24T21:05:00.019Z,26.10
2018-07-24T21:10:03.298Z,26.00
2018-07-24T21:15:06.464Z,25.90
2018-07-24T21:20:09.638Z,25.80
2018-07-24T21:25:12.807Z,25.70
2018-07-24T21:30:15.978Z,25.50
2018-07-24T21:35:19.158Z,25.50
2018-07-24T21:40:22.330Z,25.50
2018-07-24T21:45:25.522Z,25.40
2018-07-24T21:50:28.682Z,25.30
2018-07-24T21:55:31.846Z,25.10
2018-07-24T22:00:36.370Z,25.00
2018-07-24T22:05:39.513Z,25.10
2018-07-24T22:10:42.675Z,24.90
2018-07-24T22:15:45.830Z,24.80
2018-07-24T22:20:49.191Z,24.70
2018-07-24T22:25:52.360Z,24.60
2018-07-24T22:30:55.498Z,24.50
2018-07-24T22:35:58.661Z,24.60
2018-07-24T22:41:01.833Z,24.70
2018-07-24T22:46:05.126Z,24.60
2018-07-24T22:51:08.289Z,24.50
2018-07-24T22:56:11.631Z,24.40
2018-07-24T23:01:14.791Z,24.30
2018-07-24T23:06:17.942Z,24.20
2018-07-24T23:16:24.087Z,23.90
2018-07-24T23:21:27.242Z,23.80
2018-07-24T23:26:30.402Z,23.70
2018-07-24T23:31:33.573Z,23.60
2018-07-24T23:36:36.746Z,23.60
2018-07-24T23:41:40.043Z,23.60
2018-07-24T23:46:43.242Z,23.50
2018-07-24T23:51:46.345Z,23.30
2018-07-24T23:56:49.505Z,23.10
